createdAt,value
2018-05-04T00:00:33.448Z,54.69
2018-05-04T00:01:33.633Z,53.96
2018-05-04T00:02:33.821Z,55.91
2018-05-04T00:03:34.005Z,55.91
2018-05-04T00:04:34.192Z,56.40
2018-05-04T00:05:34.377Z,54.44
2018-05-04T00:06:34.562Z,55.42
2018-05-04T00:07:34.749Z,53.96
2018-05-04T00:08:34.935Z,55.42
2018-05-04T00:09:35.121Z,56.15
2018-05-04T00:10:35.305Z,58.35
2018-05-04T00:11:35.492Z,55.42
2018-05-04T00:12:35.678Z,56.88
2018-05-04T00:13:35.865Z,56.88
2018-05-04T00:14:36.050Z,56.64
2018-05-04T00:15:36.239Z,54.69
2018-05-04T00:16:36.427Z,58.35
2018-05-04T00:17:36.605Z,57.86
2018-05-04T00:18:36.789Z,58.11
2018-05-04T00:19:36.974Z,58.11
2018-05-04T00:20:37.159Z,63.96
2018-05-04T00:21:37.346Z,58.84
2018-05-04T00:22:37.531Z,59.08
2018-05-04T00:23:37.716Z,66.41
2018-05-04T00:24:37.902Z,68.12
2018-05-04T00:25:38.091Z,57.13
2018-05-04T00:26:38.272Z,57.62
2018-05-04T00:27:38.457Z,59.81
2018-05-04T00:28:38.643Z,56.40
2018-05-04T00:29:38.829Z,58.59
2018-05-04T00:30:39.013Z,59.33
2018-05-04T00:31:39.198Z,57.62
2018-05-04T00:32:39.384Z,57.37
2018-05-04T00:33:39.569Z,56.64
2018-05-04T00:34:39.756Z,60.30
2018-05-04T00:35:39.946Z,63.48
2018-05-04T00:36:40.126Z,56.40
2018-05-04T00:37:40.316Z,60.06
2018-05-04T00:38:40.496Z,56.64
2018-05-04T00:39:40.683Z,56.40
2018-05-04T00:40:40.880Z,57.37
2018-05-04T00:41:41.053Z,58.59
2018-05-04T00:42:41.240Z,58.84
2018-05-04T00:43:41.424Z,61.04
2018-05-04T00:44:41.609Z,58.35
2018-05-04T00:45:41.794Z,58.11
2018-05-04T00:46:41.976Z,58.35
2018-05-04T00:47:42.166Z,56.40
2018-05-04T00:48:42.348Z,60.06
2018-05-04T00:49:42.533Z,57.62
2018-05-04T00:50:42.718Z,57.13
2018-05-04T00:51:42.903Z,59.08
2018-05-04T00:52:43.089Z,61.52
2018-05-04T00:53:43.274Z,55.91
2018-05-04T00:54:43.459Z,56.64
2018-05-04T00:55:43.644Z,64.45
2018-05-04T00:56:43.829Z,64.70
2018-05-04T00:57:44.013Z,60.30
2018-05-04T00:58:44.198Z,59.57
2018-05-04T00:59:44.382Z,56.15
2018-05-04T01:00:44.566Z,59.08
2018-05-04T01:01:44.751Z,66.89
2018-05-04T01:02:44.939Z,62.99
2018-05-04T01:03:45.123Z,58.11
2018-05-04T01:04:45.311Z,58.11
2018-05-04T01:05:45.495Z,56.88
2018-05-04T01:06:45.678Z,64.94
2018-05-04T01:07:45.864Z,68.12
2018-05-04T01:08:46.051Z,62.01
2018-05-04T01:09:46.235Z,62.50
2018-05-04T01:10:46.419Z,57.13
2018-05-04T01:11:46.605Z,57.86
2018-05-04T01:12:46.789Z,59.08
2018-05-04T01:13:46.974Z,59.33
2018-05-04T01:14:47.159Z,59.57
2018-05-04T01:15:47.342Z,58.35
2018-05-04T01:16:47.527Z,59.33
2018-05-04T01:17:47.715Z,60.30
2018-05-04T01:18:47.900Z,58.35
2018-05-04T01:19:48.088Z,60.30
2018-05-04T01:20:48.270Z,57.37
2018-05-04T01:21:48.455Z,58.59
2018-05-04T01:22:48.640Z,59.08
2018-05-04T01:23:48.826Z,57.37
2018-05-04T01:24:49.011Z,58.35
2018-05-04T01:25:49.194Z,57.13
2018-05-04T01:26:49.378Z,67.87
2018-05-04T01:27:49.568Z,58.11
2018-05-04T01:28:49.747Z,63.48
2018-05-04T01:29:49.933Z,59.81
2018-05-04T01:30:50.118Z,59.81
2018-05-04T01:31:50.390Z,60.79
2018-05-04T01:32:50.488Z,59.57
2018-05-04T01:33:50.676Z,60.79
2018-05-04T01:34:50.857Z,61.77
2018-05-04T01:35:51.042Z,56.88
2018-05-04T01:36:51.226Z,58.35
2018-05-04T01:37:51.412Z,57.86
2018-05-04T01:38:51.597Z,58.11
2018-05-04T01:39:51.784Z,63.23
2018-05-04T01:40:51.970Z,65.43
2018-05-04T01:41:52.155Z,58.59
2018-05-04T01:42:52.339Z,60.30
2018-05-04T01:43:52.524Z,59.57
2018-05-04T01:44:52.709Z,57.37
2018-05-04T01:45:52.894Z,60.79
2018-05-04T01:46:53.079Z,65.92
2018-05-04T01:47:53.262Z,62.26
2018-05-04T01:48:53.447Z,60.55
2018-05-04T01:49:53.631Z,62.26
2018-05-04T01:50:53.815Z,58.11
2018-05-04T01:51:53.999Z,61.77
2018-05-04T01:52:54.185Z,60.06
2018-05-04T01:53:54.368Z,61.04
2018-05-04T01:54:54.556Z,63.48
2018-05-04T01:55:54.735Z,60.30
2018-05-04T01:56:54.921Z,60.30
2018-05-04T01:57:55.105Z,57.13
2018-05-04T01:58:55.292Z,57.37
2018-05-04T01:59:55.474Z,60.06
2018-05-04T02:00:55.658Z,59.81
2018-05-04T02:01:55.849Z,68.12
2018-05-04T02:02:56.028Z,59.81
2018-05-04T02:03:56.211Z,56.64
2018-05-04T02:04:56.395Z,59.57
2018-05-04T02:05:56.578Z,58.84
2018-05-04T02:06:56.768Z,60.30
2018-05-04T02:07:56.954Z,59.08
2018-05-04T02:08:57.133Z,59.81
2018-05-04T02:09:57.317Z,61.77
2018-05-04T02:10:57.502Z,62.50
2018-05-04T02:11:57.687Z,62.74
2018-05-04T02:12:57.871Z,59.81
2018-05-04T02:13:58.055Z,60.55
2018-05-04T02:14:58.237Z,62.99
2018-05-04T02:15:58.423Z,61.77
2018-05-04T02:16:58.611Z,59.08
2018-05-04T02:17:58.792Z,62.50
2018-05-04T02:18:58.977Z,66.41
2018-05-04T02:19:59.161Z,59.81
2018-05-04T02:20:59.347Z,59.57
2018-05-04T02:21:59.534Z,63.72
2018-05-04T02:22:59.714Z,65.19
2018-05-04T02:23:59.899Z,61.77
2018-05-04T02:25:00.084Z,63.23
2018-05-04T02:26:00.269Z,64.94
2018-05-04T02:27:00.454Z,63.72
2018-05-04T02:28:00.643Z,64.21
2018-05-04T02:29:00.824Z,62.74
2018-05-04T02:30:01.015Z,61.04
2018-05-04T02:31:01.192Z,68.60
2018-05-04T02:32:01.382Z,68.12
2018-05-04T02:33:01.564Z,62.99
2018-05-04T02:34:01.748Z,64.45
2018-05-04T02:35:01.936Z,61.28
2018-05-04T02:36:02.122Z,67.63
2018-05-04T02:37:02.300Z,63.72
2018-05-04T02:38:02.485Z,62.01
2018-05-04T02:39:02.670Z,59.81
2018-05-04T02:40:02.853Z,63.48
2018-05-04T02:41:03.037Z,60.06
2018-05-04T02:42:03.223Z,65.67
2018-05-04T02:43:03.406Z,59.08
2018-05-04T02:44:03.590Z,59.33
2018-05-04T02:45:03.777Z,61.28
2018-05-04T02:46:03.960Z,60.30
2018-05-04T02:47:04.147Z,60.30
2018-05-04T02:48:04.328Z,59.81
2018-05-04T02:49:04.511Z,64.45
2018-05-04T02:50:04.694Z,64.94
2018-05-04T02:51:05.715Z,62.74
2018-05-04T02:52:05.216Z,64.21
2018-05-04T02:53:05.385Z,67.63
2018-05-04T02:54:05.442Z,62.99
2018-05-04T02:55:05.629Z,63.48
2018-05-04T02:56:05.810Z,65.19
2018-05-04T02:57:05.995Z,64.45
2018-05-04T02:58:06.179Z,61.52
2018-05-04T02:59:06.364Z,61.28
2018-05-04T03:00:06.555Z,65.92
2018-05-04T03:01:06.728Z,61.52
2018-05-04T03:02:06.917Z,61.52
2018-05-04T03:03:07.096Z,61.77
2018-05-04T03:04:07.281Z,63.23
2018-05-04T03:05:07.464Z,62.74
2018-05-04T03:06:07.648Z,62.26
2018-05-04T03:07:07.830Z,63.23
2018-05-04T03:08:08.018Z,62.26
2018-05-04T03:09:08.201Z,63.23
2018-05-04T03:10:08.386Z,62.99
2018-05-04T03:11:08.572Z,63.23
2018-05-04T03:12:08.756Z,64.45
2018-05-04T03:13:08.939Z,62.74
2018-05-04T03:14:09.123Z,62.74
2018-05-04T03:15:09.312Z,67.87
2018-05-04T03:16:09.492Z,67.63
2018-05-04T03:17:09.675Z,63.72
2018-05-04T03:18:09.858Z,67.87
2018-05-04T03:19:10.043Z,64.94
2018-05-04T03:20:10.226Z,67.38
2018-05-04T03:21:10.411Z,66.41
2018-05-04T03:22:10.595Z,64.94
2018-05-04T03:23:10.784Z,67.38
2018-05-04T03:24:10.965Z,62.99
2018-05-04T03:25:11.149Z,65.19
2018-05-04T03:26:11.334Z,62.50
2018-05-04T03:27:11.516Z,62.74
2018-05-04T03:28:11.702Z,62.99
2018-05-04T03:29:11.887Z,63.72
2018-05-04T03:30:12.070Z,62.99
2018-05-04T03:31:12.255Z,68.12
2018-05-04T03:32:12.439Z,68.85
2018-05-04T03:33:12.621Z,62.74
2018-05-04T03:34:12.805Z,60.79
2018-05-04T03:35:12.988Z,68.85
2018-05-04T03:36:13.170Z,62.50
2018-05-04T03:37:13.357Z,64.45
2018-05-04T03:38:13.541Z,61.28
2018-05-04T03:39:13.723Z,65.92
2018-05-04T03:40:13.909Z,71.53
2018-05-04T03:41:14.093Z,67.14
2018-05-04T03:42:14.278Z,68.36
2018-05-04T03:43:14.463Z,70.31
2018-05-04T03:44:14.646Z,65.19
2018-05-04T03:45:14.832Z,61.04
2018-05-04T03:46:15.016Z,61.28
2018-05-04T03:47:15.203Z,71.04
2018-05-04T03:48:15.384Z,69.58
2018-05-04T03:49:15.568Z,62.01
2018-05-04T03:50:15.752Z,61.28
2018-05-04T03:51:15.937Z,61.52
2018-05-04T03:52:16.119Z,63.23
2018-05-04T03:53:16.305Z,63.96
2018-05-04T03:54:16.489Z,63.72
2018-05-04T03:55:16.675Z,62.74
2018-05-04T03:56:16.858Z,63.23
2018-05-04T03:57:17.044Z,62.74
2018-05-04T03:58:17.230Z,62.99
2018-05-04T03:59:17.412Z,59.33
2018-05-04T04:00:17.601Z,60.30
2018-05-04T04:01:17.781Z,64.94
2018-05-04T04:02:17.964Z,61.28
2018-05-04T04:03:18.150Z,61.77
2018-05-04T04:04:18.332Z,62.26
2018-05-04T04:05:18.516Z,60.79
2018-05-04T04:06:18.700Z,60.79
2018-05-04T04:07:18.884Z,60.30
2018-05-04T04:08:19.068Z,61.52
2018-05-04T04:09:19.254Z,61.52
2018-05-04T04:10:19.440Z,61.52
2018-05-04T04:11:19.624Z,68.85
2018-05-04T04:12:19.808Z,61.04
2018-05-04T04:13:19.993Z,61.52
2018-05-04T04:14:20.175Z,62.01
2018-05-04T04:15:20.361Z,59.81
2018-05-04T04:16:20.544Z,59.81
2018-05-04T04:17:20.730Z,62.99
2018-05-04T04:18:20.916Z,62.50
2018-05-04T04:19:21.101Z,73.73
2018-05-04T04:20:21.284Z,63.48
2018-05-04T04:21:21.467Z,62.74
2018-05-04T04:22:21.654Z,64.21
2018-05-04T04:23:21.843Z,65.43
2018-05-04T04:24:22.025Z,70.80
2018-05-04T04:25:22.210Z,64.70
2018-05-04T04:26:22.399Z,63.72
2018-05-04T04:27:22.582Z,66.89
2018-05-04T04:28:22.771Z,63.23
2018-05-04T04:29:22.955Z,63.96
2018-05-04T04:30:23.141Z,63.96
2018-05-04T04:31:23.325Z,62.26
2018-05-04T04:32:23.513Z,63.48
2018-05-04T04:33:23.697Z,61.77
2018-05-04T04:34:23.884Z,61.77
2018-05-04T04:35:24.069Z,63.72
2018-05-04T04:36:24.246Z,64.21
2018-05-04T04:37:24.437Z,69.09
2018-05-04T04:38:24.620Z,60.79
2018-05-04T04:39:24.808Z,63.72
2018-05-04T04:40:24.997Z,68.12
2018-05-04T04:41:25.183Z,65.67
2018-05-04T04:42:25.376Z,64.21
2018-05-04T04:43:25.550Z,68.60
2018-05-04T04:44:25.737Z,63.48
2018-05-04T04:45:25.925Z,61.28
2018-05-04T04:46:26.112Z,66.16
2018-05-04T04:47:26.301Z,61.77
2018-05-04T04:48:26.487Z,63.48
2018-05-04T04:49:26.674Z,62.01
2018-05-04T04:50:26.862Z,63.23
2018-05-04T04:51:27.048Z,63.96
2018-05-04T04:52:27.246Z,66.65
2018-05-04T04:53:27.428Z,69.34
2018-05-04T04:54:27.617Z,64.94
2018-05-04T04:55:27.806Z,64.94
2018-05-04T04:56:27.995Z,64.70
2018-05-04T04:57:28.186Z,63.72
2018-05-04T04:58:28.373Z,61.52
2018-05-04T04:59:28.559Z,62.01
2018-05-04T05:00:28.749Z,65.67
2018-05-04T05:01:28.937Z,61.77
2018-05-04T05:02:29.128Z,67.14
2018-05-04T05:03:29.315Z,64.21
2018-05-04T05:04:29.505Z,61.52
2018-05-04T05:05:29.694Z,62.74
2018-05-04T05:06:29.885Z,63.72
2018-05-04T05:07:30.073Z,63.23
2018-05-04T05:08:30.268Z,67.38
2018-05-04T05:09:30.457Z,63.96
2018-05-04T05:10:30.650Z,63.23
2018-05-04T05:11:30.837Z,62.50
2018-05-04T05:12:31.028Z,71.04
2018-05-04T05:13:31.245Z,63.72
2018-05-04T05:14:31.411Z,62.01
2018-05-04T05:15:31.599Z,64.70
2018-05-04T05:16:31.791Z,68.12
2018-05-04T05:17:31.985Z,65.92
2018-05-04T05:18:32.179Z,64.45
2018-05-04T05:19:32.371Z,66.89
2018-05-04T05:20:32.563Z,64.21
2018-05-04T05:21:32.754Z,67.38
2018-05-04T05:22:32.946Z,60.30
2018-05-04T05:23:33.139Z,61.52
2018-05-04T05:24:33.329Z,68.36
2018-05-04T05:25:33.521Z,65.92
2018-05-04T05:26:33.714Z,64.94
2018-05-04T05:27:33.906Z,77.39
2018-05-04T05:28:34.100Z,62.50
2018-05-04T05:29:34.297Z,67.87
2018-05-04T05:30:34.485Z,69.09
2018-05-04T05:31:34.681Z,60.06
2018-05-04T05:32:34.871Z,65.43
2018-05-04T05:33:35.063Z,65.92
2018-05-04T05:34:35.256Z,63.72
2018-05-04T05:35:35.452Z,71.53
2018-05-04T05:36:35.642Z,66.89
2018-05-04T05:37:35.834Z,61.04
2018-05-04T05:38:36.026Z,60.79
2018-05-04T05:39:36.218Z,60.06
2018-05-04T05:40:36.411Z,60.06
2018-05-04T05:41:36.606Z,61.28
2018-05-04T05:42:36.796Z,64.45
2018-05-04T05:43:36.990Z,73.00
2018-05-04T05:44:37.185Z,66.41
2018-05-04T05:45:37.379Z,63.72
2018-05-04T05:46:37.575Z,70.07
2018-05-04T05:47:37.770Z,76.42
2018-05-04T05:48:37.965Z,70.07
2018-05-04T05:49:38.160Z,76.66
2018-05-04T05:50:38.357Z,68.85
2018-05-04T05:51:38.549Z,69.09
2018-05-04T05:52:38.744Z,69.09
2018-05-04T05:53:38.938Z,65.67
2018-05-04T05:54:39.168Z,62.50
2018-05-04T05:55:39.330Z,65.43
2018-05-04T05:56:39.525Z,63.23
2018-05-04T05:57:39.717Z,64.21
2018-05-04T05:58:39.917Z,75.93
2018-05-04T05:59:40.110Z,64.94
2018-05-04T06:00:40.308Z,71.78
2018-05-04T06:01:40.504Z,63.72
2018-05-04T06:02:40.699Z,67.38
2018-05-04T06:03:40.895Z,67.14
2018-05-04T06:04:41.103Z,66.65
2018-05-04T06:05:41.286Z,70.80
2018-05-04T06:06:41.490Z,71.04
2018-05-04T06:07:41.682Z,74.22
2018-05-04T06:08:41.877Z,78.13
2018-05-04T06:09:42.076Z,73.73
2018-05-04T06:10:42.271Z,81.05
2018-05-04T06:11:42.466Z,72.02
2018-05-04T06:12:42.667Z,73.49
2018-05-04T06:13:42.858Z,71.78
2018-05-04T06:14:43.052Z,70.56
2018-05-04T06:15:43.250Z,75.93
2018-05-04T06:16:43.447Z,72.02
2018-05-04T06:17:43.646Z,71.78
2018-05-04T06:18:43.839Z,75.93
2018-05-04T06:19:44.039Z,69.58
2018-05-04T06:20:44.240Z,70.31
2018-05-04T06:21:44.433Z,76.90
2018-05-04T06:22:44.631Z,75.44
2018-05-04T06:23:44.828Z,73.97
2018-05-04T06:24:45.025Z,67.14
2018-05-04T06:25:45.220Z,67.63
2018-05-04T06:26:45.418Z,78.86
2018-05-04T06:27:45.615Z,69.82
2018-05-04T06:28:45.811Z,59.57
2018-05-04T06:29:46.010Z,62.50
2018-05-04T06:30:46.206Z,69.09
2018-05-04T06:31:46.403Z,70.31
2018-05-04T06:32:46.602Z,72.75
2018-05-04T06:33:46.821Z,64.21
2018-05-04T06:34:47.001Z,61.77
2018-05-04T06:35:47.195Z,62.26
2018-05-04T06:36:47.391Z,64.45
2018-05-04T06:37:47.589Z,60.30
2018-05-04T06:38:47.787Z,61.04
2018-05-04T06:39:47.993Z,61.04
2018-05-04T06:40:48.184Z,61.28
2018-05-04T06:41:48.382Z,59.57
2018-05-04T06:42:48.580Z,62.99
2018-05-04T06:43:48.781Z,59.33
2018-05-04T06:44:48.979Z,64.70
2018-05-04T06:45:49.192Z,65.43
2018-05-04T06:46:49.381Z,69.34
2018-05-04T06:47:49.575Z,57.86
2018-05-04T06:48:49.774Z,59.81
2018-05-04T06:49:49.974Z,56.64
2018-05-04T06:50:50.173Z,62.01
2018-05-04T06:51:50.372Z,60.79
2018-05-04T06:52:50.572Z,63.48
2018-05-04T06:53:50.770Z,70.56
2018-05-04T06:54:50.974Z,66.65
2018-05-04T06:55:51.171Z,58.59
2018-05-04T06:56:51.370Z,68.85
2018-05-04T06:57:51.571Z,70.80
2018-05-04T06:58:51.772Z,67.38
2018-05-04T06:59:51.974Z,72.27
2018-05-04T07:00:52.174Z,71.04
2018-05-04T07:01:52.372Z,67.63
2018-05-04T07:02:52.571Z,70.80
2018-05-04T07:03:52.774Z,69.82
2018-05-04T07:04:52.973Z,56.64
2018-05-04T07:05:53.175Z,59.81
2018-05-04T07:06:53.371Z,60.06
2018-05-04T07:07:53.573Z,74.71
2018-05-04T07:08:53.778Z,69.34
2018-05-04T07:09:53.971Z,76.17
2018-05-04T07:10:54.170Z,67.63
2018-05-04T07:11:54.372Z,67.63
2018-05-04T07:12:54.573Z,61.04
2018-05-04T07:13:54.769Z,62.99
2018-05-04T07:14:54.973Z,73.00
2018-05-04T07:15:55.171Z,68.36
2018-05-04T07:16:55.371Z,72.51
2018-05-04T07:17:55.572Z,76.90
2018-05-04T07:18:55.809Z,82.28
2018-05-04T07:19:55.971Z,74.71
2018-05-04T07:20:56.173Z,60.06
2018-05-04T07:21:56.377Z,74.22
2018-05-04T07:22:56.577Z,69.82
2018-05-04T07:23:56.776Z,75.93
2018-05-04T07:24:56.975Z,66.16
2018-05-04T07:25:57.176Z,88.13
2018-05-04T07:26:57.377Z,64.94
2018-05-04T07:27:57.582Z,61.52
2018-05-04T07:28:57.775Z,65.92
2018-05-04T07:29:57.975Z,77.15
2018-05-04T07:30:58.174Z,75.93
2018-05-04T07:31:58.376Z,74.22
2018-05-04T07:32:58.576Z,76.42
2018-05-04T07:33:58.774Z,74.22
2018-05-04T07:34:58.976Z,76.17
2018-05-04T07:35:59.237Z,76.90
2018-05-04T07:36:59.379Z,83.25
2018-05-04T07:37:59.577Z,82.76
2018-05-04T07:38:59.776Z,87.65
2018-05-04T07:39:59.974Z,71.53
2018-05-04T07:41:00.173Z,76.66
2018-05-04T07:42:00.372Z,78.86
2018-05-04T07:43:00.573Z,67.87
2018-05-04T07:44:00.771Z,70.80
2018-05-04T07:45:00.971Z,85.94
2018-05-04T07:46:01.170Z,76.42
2018-05-04T07:47:01.368Z,77.39
2018-05-04T07:48:01.567Z,67.14
2018-05-04T07:49:01.765Z,80.32
2018-05-04T07:50:01.963Z,85.94
2018-05-04T07:51:02.165Z,81.79
2018-05-04T07:52:02.368Z,80.08
2018-05-04T07:53:02.562Z,75.93
2018-05-04T07:54:02.761Z,74.71
2018-05-04T07:55:02.958Z,75.93
2018-05-04T07:56:03.157Z,77.39
2018-05-04T07:57:03.354Z,76.66
2018-05-04T07:58:03.553Z,76.66
2018-05-04T07:59:03.752Z,76.42
2018-05-04T08:00:03.952Z,73.73
2018-05-04T08:01:04.149Z,69.58
2018-05-04T08:02:04.350Z,77.39
2018-05-04T08:03:04.550Z,73.97
2018-05-04T08:04:04.754Z,80.08
2018-05-04T08:05:04.949Z,75.20
2018-05-04T08:06:05.149Z,68.85
2018-05-04T08:07:05.349Z,78.37
2018-05-04T08:08:05.543Z,82.52
2018-05-04T08:09:05.742Z,77.88
2018-05-04T08:10:05.941Z,76.42
2018-05-04T08:11:06.141Z,75.93
2018-05-04T08:12:06.338Z,84.72
2018-05-04T08:13:06.536Z,89.60
2018-05-04T08:14:06.736Z,73.24
2018-05-04T08:15:06.932Z,72.75
2018-05-04T08:16:07.132Z,89.60
2018-05-04T08:17:07.335Z,75.44
2018-05-04T08:18:07.529Z,88.13
2018-05-04T08:19:07.727Z,85.21
2018-05-04T08:20:07.931Z,81.54
2018-05-04T08:21:08.123Z,78.37
2018-05-04T08:22:08.321Z,63.48
2018-05-04T08:23:08.519Z,80.08
2018-05-04T08:24:08.720Z,72.51
2018-05-04T08:25:08.917Z,75.93
2018-05-04T08:26:09.115Z,84.72
2018-05-04T08:27:09.313Z,67.87
2018-05-04T08:28:09.512Z,82.52
2018-05-04T08:29:09.709Z,73.97
2018-05-04T08:30:09.908Z,69.58
2018-05-04T08:31:10.105Z,79.35
2018-05-04T08:32:10.305Z,73.49
2018-05-04T08:33:10.503Z,70.31
2018-05-04T08:34:10.704Z,82.76
2018-05-04T08:35:10.913Z,78.13
2018-05-04T08:36:11.095Z,83.50
2018-05-04T08:37:11.293Z,81.05
2018-05-04T08:38:11.490Z,67.14
2018-05-04T08:39:11.713Z,81.54
2018-05-04T08:40:11.885Z,83.98
2018-05-04T08:41:12.083Z,83.50
2018-05-04T08:42:12.282Z,77.88
2018-05-04T08:43:12.489Z,86.91
2018-05-04T08:44:12.678Z,83.98
2018-05-04T08:45:12.874Z,78.86
2018-05-04T08:46:13.073Z,73.49
2018-05-04T08:47:13.267Z,81.79
2018-05-04T08:48:13.533Z,79.59
2018-05-04T08:49:13.663Z,75.20
2018-05-04T08:50:13.857Z,64.45
2018-05-04T08:51:14.077Z,78.13
2018-05-04T08:52:14.253Z,84.47
2018-05-04T08:53:14.448Z,81.54
2018-05-04T08:54:14.698Z,79.59
2018-05-04T08:55:14.844Z,77.15
2018-05-04T08:56:15.042Z,76.66
2018-05-04T08:57:15.323Z,66.41
2018-05-04T08:58:15.432Z,75.44
2018-05-04T08:59:15.630Z,71.29
2018-05-04T09:00:15.827Z,85.94
2018-05-04T09:01:16.023Z,74.95
2018-05-04T09:02:16.220Z,87.89
2018-05-04T09:03:16.418Z,77.15
2018-05-04T09:04:16.613Z,77.15
2018-05-04T09:05:16.896Z,77.39
2018-05-04T09:06:17.005Z,84.47
2018-05-04T09:07:17.200Z,78.86
2018-05-04T09:08:17.396Z,79.35
2018-05-04T09:09:17.592Z,88.62
2018-05-04T09:10:17.787Z,84.47
2018-05-04T09:11:17.983Z,75.93
2018-05-04T09:12:18.179Z,73.49
2018-05-04T09:13:18.376Z,75.93
2018-05-04T09:14:18.573Z,81.79
2018-05-04T09:15:18.790Z,72.75
2018-05-04T09:16:18.961Z,79.10
2018-05-04T09:17:19.157Z,70.07
2018-05-04T09:18:19.352Z,76.42
2018-05-04T09:19:19.547Z,82.52
2018-05-04T09:20:19.745Z,73.24
2018-05-04T09:21:19.939Z,73.97
2018-05-04T09:22:20.133Z,80.08
2018-05-04T09:23:20.333Z,81.05
2018-05-04T09:24:20.526Z,84.47
2018-05-04T09:25:20.806Z,93.02
2018-05-04T09:26:20.917Z,88.87
2018-05-04T09:27:21.110Z,82.76
2018-05-04T09:28:21.311Z,77.64
2018-05-04T09:29:21.501Z,76.17
2018-05-04T09:30:21.698Z,72.02
2018-05-04T09:31:21.890Z,90.09
2018-05-04T09:32:22.084Z,83.01
2018-05-04T09:33:22.280Z,79.59
2018-05-04T09:34:22.473Z,73.49
2018-05-04T09:35:22.671Z,78.61
2018-05-04T09:36:22.861Z,75.44
2018-05-04T09:37:23.129Z,76.17
2018-05-04T09:38:23.259Z,76.66
2018-05-04T09:39:23.447Z,71.29
2018-05-04T09:40:23.641Z,61.28
2018-05-04T09:41:23.835Z,67.87
2018-05-04T09:42:24.035Z,70.07
2018-05-04T09:43:24.253Z,73.49
2018-05-04T09:44:24.423Z,76.90
2018-05-04T09:45:24.618Z,74.95
2018-05-04T09:46:24.814Z,80.57
2018-05-04T09:47:25.008Z,85.69
2018-05-04T09:48:25.212Z,80.32
2018-05-04T09:49:25.434Z,69.09
2018-05-04T09:50:25.569Z,70.31
2018-05-04T09:51:25.761Z,64.70
2018-05-04T09:52:25.954Z,81.05
2018-05-04T09:53:26.148Z,75.44
2018-05-04T09:54:26.340Z,76.42
2018-05-04T09:55:26.539Z,90.58
2018-05-04T09:56:26.730Z,76.17
2018-05-04T09:57:26.929Z,75.44
2018-05-04T09:58:27.118Z,84.23
2018-05-04T09:59:27.311Z,77.39
2018-05-04T10:00:27.505Z,87.89
2018-05-04T10:01:27.698Z,80.32
2018-05-04T10:02:27.891Z,71.78
2018-05-04T10:03:28.104Z,71.78
2018-05-04T10:04:28.277Z,73.97
2018-05-04T10:05:28.474Z,79.35
2018-05-04T10:06:28.661Z,76.90
2018-05-04T10:07:28.853Z,80.57
2018-05-04T10:08:29.047Z,79.83
2018-05-04T10:09:29.267Z,74.71
2018-05-04T10:10:29.430Z,80.81
2018-05-04T10:11:29.625Z,78.61
2018-05-04T10:12:29.817Z,83.01
2018-05-04T10:13:30.009Z,83.74
2018-05-04T10:14:30.202Z,80.57
2018-05-04T10:15:30.436Z,81.54
2018-05-04T10:16:30.589Z,73.00
2018-05-04T10:17:30.779Z,70.56
2018-05-04T10:18:30.972Z,75.68
2018-05-04T10:19:31.165Z,88.87
2018-05-04T10:20:31.357Z,78.37
2018-05-04T10:21:31.550Z,91.55
2018-05-04T10:22:31.740Z,76.42
2018-05-04T10:23:31.935Z,87.89
2018-05-04T10:24:32.129Z,77.39
2018-05-04T10:25:32.318Z,79.59
2018-05-04T10:26:32.510Z,80.57
2018-05-04T10:27:32.703Z,75.68
2018-05-04T10:28:32.896Z,68.60
2018-05-04T10:29:33.087Z,81.30
2018-05-04T10:30:33.278Z,84.23
2018-05-04T10:31:33.471Z,74.46
2018-05-04T10:32:33.663Z,78.13
2018-05-04T10:33:33.855Z,74.22
2018-05-04T10:34:34.047Z,79.83
2018-05-04T10:35:34.239Z,69.58
2018-05-04T10:36:34.435Z,82.76
2018-05-04T10:37:34.625Z,88.38
2018-05-04T10:38:34.918Z,78.13
2018-05-04T10:39:35.011Z,89.60
2018-05-04T10:40:35.199Z,88.38
2018-05-04T10:41:35.390Z,80.57
2018-05-04T10:42:35.586Z,79.35
2018-05-04T10:43:35.772Z,79.83
2018-05-04T10:44:35.964Z,76.42
2018-05-04T10:45:36.153Z,75.44
2018-05-04T10:46:36.345Z,67.63
2018-05-04T10:47:36.536Z,73.49
2018-05-04T10:48:36.726Z,77.88
2018-05-04T10:49:36.919Z,88.62
2018-05-04T10:50:37.111Z,81.05
2018-05-04T10:51:37.304Z,84.72
2018-05-04T10:52:37.502Z,77.15
2018-05-04T10:53:37.688Z,81.54
2018-05-04T10:54:37.881Z,79.35
2018-05-04T10:55:38.071Z,74.95
2018-05-04T10:56:38.262Z,76.90
2018-05-04T10:57:38.455Z,67.63
2018-05-04T10:58:38.646Z,73.97
2018-05-04T10:59:38.837Z,76.17
2018-05-04T11:00:39.030Z,70.56
2018-05-04T11:01:39.220Z,74.22
2018-05-04T11:02:39.412Z,73.97
2018-05-04T11:03:39.602Z,70.56
2018-05-04T11:04:39.793Z,62.01
2018-05-04T11:05:39.984Z,70.56
2018-05-04T11:06:40.178Z,76.42
2018-05-04T11:07:40.369Z,76.42
2018-05-04T11:08:40.561Z,70.31
2018-05-04T11:09:40.754Z,74.95
2018-05-04T11:10:40.943Z,74.22
2018-05-04T11:11:41.136Z,74.71
2018-05-04T11:12:41.329Z,73.73
2018-05-04T11:13:41.520Z,69.58
2018-05-04T11:14:41.711Z,71.04
2018-05-04T11:15:41.906Z,74.46
2018-05-04T11:16:42.094Z,75.68
2018-05-04T11:17:42.289Z,69.82
2018-05-04T11:18:42.476Z,74.71
2018-05-04T11:19:42.667Z,73.00
2018-05-04T11:20:42.860Z,81.30
2018-05-04T11:21:43.051Z,75.44
2018-05-04T11:22:43.245Z,68.60
2018-05-04T11:23:43.435Z,74.95
2018-05-04T11:24:43.627Z,71.04
2018-05-04T11:25:43.815Z,74.46
2018-05-04T11:26:44.009Z,71.53
2018-05-04T11:27:44.200Z,66.65
2018-05-04T11:28:44.389Z,74.71
2018-05-04T11:29:44.581Z,74.22
2018-05-04T11:30:44.772Z,83.25
2018-05-04T11:31:44.963Z,71.78
2018-05-04T11:32:45.154Z,65.67
2018-05-04T11:33:45.345Z,76.90
2018-05-04T11:34:45.533Z,65.92
2018-05-04T11:35:45.725Z,69.58
2018-05-04T11:36:45.916Z,64.45
2018-05-04T11:37:46.106Z,67.87
2018-05-04T11:38:46.345Z,81.30
2018-05-04T11:39:46.487Z,73.24
2018-05-04T11:40:46.676Z,64.94
2018-05-04T11:41:46.868Z,73.49
2018-05-04T11:42:47.061Z,74.95
2018-05-04T11:43:47.249Z,74.71
2018-05-04T11:44:47.440Z,79.83
2018-05-04T11:45:47.630Z,78.61
2018-05-04T11:46:47.822Z,73.73
2018-05-04T11:47:48.013Z,82.28
2018-05-04T11:48:48.205Z,83.01
2018-05-04T11:49:48.394Z,79.83
2018-05-04T11:50:48.585Z,74.95
2018-05-04T11:51:48.776Z,78.37
2018-05-04T11:52:48.967Z,89.84
2018-05-04T11:53:49.159Z,81.30
2018-05-04T11:54:49.349Z,88.13
2018-05-04T11:55:49.539Z,91.80
2018-05-04T11:56:49.740Z,85.45
2018-05-04T11:57:49.931Z,71.78
2018-05-04T11:58:50.121Z,78.86
2018-05-04T11:59:50.313Z,84.47
2018-05-04T12:00:50.502Z,89.84
2018-05-04T12:01:50.697Z,82.28
2018-05-04T12:02:50.885Z,71.29
2018-05-04T12:03:51.074Z,87.65
2018-05-04T12:04:51.350Z,79.59
2018-05-04T12:05:51.452Z,71.04
2018-05-04T12:06:51.656Z,69.34
2018-05-04T12:07:51.847Z,82.76
2018-05-04T12:08:52.037Z,83.98
2018-05-04T12:09:52.228Z,80.08
2018-05-04T12:10:52.505Z,78.61
2018-05-04T12:11:52.608Z,77.15
2018-05-04T12:12:52.798Z,69.09
2018-05-04T12:13:52.987Z,68.36
2018-05-04T12:14:53.178Z,72.51
2018-05-04T12:15:53.365Z,76.66
2018-05-04T12:16:53.556Z,80.81
2018-05-04T12:17:53.744Z,75.20
2018-05-04T12:18:53.934Z,72.51
2018-05-04T12:19:54.124Z,72.27
2018-05-04T12:20:54.315Z,72.02
2018-05-04T12:21:54.505Z,76.42
2018-05-04T12:22:54.777Z,75.20
2018-05-04T12:23:54.883Z,77.64
2018-05-04T12:24:55.074Z,85.45
2018-05-04T12:25:55.265Z,83.50
2018-05-04T12:26:55.455Z,80.81
2018-05-04T12:27:55.649Z,77.39
2018-05-04T12:28:55.836Z,73.00
2018-05-04T12:29:56.025Z,80.57
2018-05-04T12:30:56.217Z,78.13
2018-05-04T12:31:56.408Z,67.14
2018-05-04T12:32:56.595Z,81.05
2018-05-04T12:33:56.786Z,73.97
2018-05-04T12:34:56.975Z,73.24
2018-05-04T12:35:57.166Z,75.44
2018-05-04T12:36:57.356Z,79.35
2018-05-04T12:37:57.543Z,74.22
2018-05-04T12:38:57.737Z,74.22
2018-05-04T12:39:57.924Z,81.79
2018-05-04T12:40:58.114Z,77.64
2018-05-04T12:41:58.305Z,80.08
2018-05-04T12:42:58.494Z,67.63
2018-05-04T12:43:58.684Z,71.29
2018-05-04T12:44:58.873Z,73.97
2018-05-04T12:45:59.065Z,68.85
2018-05-04T12:46:59.330Z,72.51
2018-05-04T12:47:59.443Z,76.17
2018-05-04T12:48:59.631Z,75.44
2018-05-04T12:49:59.823Z,74.95
2018-05-04T12:51:00.015Z,72.51
2018-05-04T12:52:00.204Z,78.37
2018-05-04T12:53:00.397Z,79.83
2018-05-04T12:54:00.588Z,90.58
2018-05-04T12:55:00.779Z,89.60